<?xml version="1.0" encoding="UTF-8" standalone="no" ?>
<gpx xmlns="http://www.topografix.com/GPX/1/1" xmlns:xsi="http://www.w3.org/2001/XMLSchema-instance" xsi:schemaLocation="http://www.topografix.com/GPX/1/1 http://www.topografix.com/GPX/1/1/gpx.xsd" version="1.1" creator="VisuGPX - https://www.visugpx.com">
  <metadata>
    <name>St André de Rosans</name>
    <desc><![CDATA[Sentier en crête sur le vallon de l\'Eygues.Ruines d\'un prieuré à St André de Rosans.]]></desc>
  </metadata>
  <trk>
    <name><![CDATA[11-AOU-14 14:36:35]]></name>
    <trkseg>
      <trkpt lat="44.37733" lon="5.51538">
        <ele>708.63</ele>
        <time>2014-08-11T09:35:23Z</time>
      </trkpt>
      <trkpt lat="44.37734" lon="5.51538">
        <ele>711.51</ele>
        <time>2014-08-11T09:35:27Z</time>
      </trkpt>
      <trkpt lat="44.37734" lon="5.51538">
        <ele>712.95</ele>
        <time>2014-08-11T09:35:29Z</time>
      </trkpt>
      <trkpt lat="44.37733" lon="5.51537">
        <ele>715.84</ele>
        <time>2014-08-11T09:35:33Z</time>
      </trkpt>
      <trkpt lat="44.37733" lon="5.51537">
        <ele>719.2</ele>
        <time>2014-08-11T09:35:37Z</time>
      </trkpt>
      <trkpt lat="44.37733" lon="5.51537">
        <ele>718.72</ele>
        <time>2014-08-11T09:35:38Z</time>
      </trkpt>
      <trkpt lat="44.37732" lon="5.51536">
        <ele>722.09</ele>
        <time>2014-08-11T09:35:44Z</time>
      </trkpt>
      <trkpt lat="44.37732" lon="5.51534">
        <ele>724.97</ele>
        <time>2014-08-11T09:35:50Z</time>
      </trkpt>
      <trkpt lat="44.37732" lon="5.51532">
        <ele>727.86</ele>
        <time>2014-08-11T09:35:56Z</time>
      </trkpt>
      <trkpt lat="44.37732" lon="5.51532">
        <ele>730.74</ele>
        <time>2014-08-11T09:36:04Z</time>
      </trkpt>
      <trkpt lat="44.37732" lon="5.51531">
        <ele>731.7</ele>
        <time>2014-08-11T09:36:06Z</time>
      </trkpt>
      <trkpt lat="44.37732" lon="5.5153">
        <ele>733.14</ele>
        <time>2014-08-11T09:36:11Z</time>
      </trkpt>
      <trkpt lat="44.37732" lon="5.51531">
        <ele>736.51</ele>
        <time>2014-08-11T09:36:23Z</time>
      </trkpt>
      <trkpt lat="44.37735" lon="5.5154">
        <ele>737.95</ele>
        <time>2014-08-11T09:36:39Z</time>
      </trkpt>
      <trkpt lat="44.37735" lon="5.51537">
        <ele>738.91</ele>
        <time>2014-08-11T09:37:08Z</time>
      </trkpt>
      <trkpt lat="44.37733" lon="5.51536">
        <ele>738.91</ele>
        <time>2014-08-11T09:37:36Z</time>
      </trkpt>
      <trkpt lat="44.37731" lon="5.5153">
        <ele>738.91</ele>
        <time>2014-08-11T09:37:56Z</time>
      </trkpt>
      <trkpt lat="44.37722" lon="5.51514">
        <ele>738.91</ele>
        <time>2014-08-11T09:38:15Z</time>
      </trkpt>
      <trkpt lat="44.37709" lon="5.51499">
        <ele>738.43</ele>
        <time>2014-08-11T09:38:33Z</time>
      </trkpt>
      <trkpt lat="44.37707" lon="5.51482">
        <ele>738.43</ele>
        <time>2014-08-11T09:38:45Z</time>
      </trkpt>
      <trkpt lat="44.37698" lon="5.51459">
        <ele>738.43</ele>
        <time>2014-08-11T09:39:05Z</time>
      </trkpt>
      <trkpt lat="44.37692" lon="5.51458">
        <ele>738.43</ele>
        <time>2014-08-11T09:39:17Z</time>
      </trkpt>
      <trkpt lat="44.3768" lon="5.51456">
        <ele>738.43</ele>
        <time>2014-08-11T09:39:35Z</time>
      </trkpt>
      <trkpt lat="44.37665" lon="5.51445">
        <ele>738.43</ele>
        <time>2014-08-11T09:39:52Z</time>
      </trkpt>
      <trkpt lat="44.37655" lon="5.51434">
        <ele>737.47</ele>
        <time>2014-08-11T09:40:05Z</time>
      </trkpt>
      <trkpt lat="44.37636" lon="5.51417">
        <ele>736.99</ele>
        <time>2014-08-11T09:40:27Z</time>
      </trkpt>
      <trkpt lat="44.37642" lon="5.51403">
        <ele>736.99</ele>
        <time>2014-08-11T09:40:43Z</time>
      </trkpt>
      <trkpt lat="44.37643" lon="5.51401">
        <ele>737.47</ele>
        <time>2014-08-11T09:40:44Z</time>
      </trkpt>
      <trkpt lat="44.37651" lon="5.51386">
        <ele>737.47</ele>
        <time>2014-08-11T09:40:58Z</time>
      </trkpt>
      <trkpt lat="44.37649" lon="5.51361">
        <ele>737.95</ele>
        <time>2014-08-11T09:41:15Z</time>
      </trkpt>
      <trkpt lat="44.37648" lon="5.51355">
        <ele>737.95</ele>
        <time>2014-08-11T09:41:19Z</time>
      </trkpt>
      <trkpt lat="44.37647" lon="5.51344">
        <ele>737.47</ele>
        <time>2014-08-11T09:41:26Z</time>
      </trkpt>
      <trkpt lat="44.37648" lon="5.51325">
        <ele>738.43</ele>
        <time>2014-08-11T09:41:45Z</time>
      </trkpt>
      <trkpt lat="44.37649" lon="5.51309">
        <ele>738.43</ele>
        <time>2014-08-11T09:42:03Z</time>
      </trkpt>
      <trkpt lat="44.37648" lon="5.51305">
        <ele>738.43</ele>
        <time>2014-08-11T09:42:06Z</time>
      </trkpt>
      <trkpt lat="44.37639" lon="5.51276">
        <ele>738.43</ele>
        <time>2014-08-11T09:42:25Z</time>
      </trkpt>
      <trkpt lat="44.37631" lon="5.51245">
        <ele>739.87</ele>
        <time>2014-08-11T09:42:45Z</time>
      </trkpt>
      <trkpt lat="44.37623" lon="5.51223">
        <ele>741.31</ele>
        <time>2014-08-11T09:43:06Z</time>
      </trkpt>
      <trkpt lat="44.37624" lon="5.51225">
        <ele>741.79</ele>
        <time>2014-08-11T09:43:13Z</time>
      </trkpt>
      <trkpt lat="44.37637" lon="5.51256">
        <ele>738.91</ele>
        <time>2014-08-11T09:43:31Z</time>
      </trkpt>
      <trkpt lat="44.37639" lon="5.51273">
        <ele>737.47</ele>
        <time>2014-08-11T09:43:42Z</time>
      </trkpt>
      <trkpt lat="44.37631" lon="5.51241">
        <ele>739.87</ele>
        <time>2014-08-11T09:44:02Z</time>
      </trkpt>
      <trkpt lat="44.37624" lon="5.51224">
        <ele>741.31</ele>
        <time>2014-08-11T09:44:19Z</time>
      </trkpt>
      <trkpt lat="44.37624" lon="5.51222">
        <ele>741.31</ele>
        <time>2014-08-11T09:44:58Z</time>
      </trkpt>
      <trkpt lat="44.37623" lon="5.51217">
        <ele>741.79</ele>
        <time>2014-08-11T09:45:19Z</time>
      </trkpt>
      <trkpt lat="44.37623" lon="5.51214">
        <ele>741.79</ele>
        <time>2014-08-11T09:45:46Z</time>
      </trkpt>
      <trkpt lat="44.37622" lon="5.51211">
        <ele>741.31</ele>
        <time>2014-08-11T09:46:14Z</time>
      </trkpt>
      <trkpt lat="44.37624" lon="5.51214">
        <ele>741.79</ele>
        <time>2014-08-11T09:46:43Z</time>
      </trkpt>
      <trkpt lat="44.37622" lon="5.51213">
        <ele>741.79</ele>
        <time>2014-08-11T09:47:07Z</time>
      </trkpt>
      <trkpt lat="44.37622" lon="5.51216">
        <ele>741.79</ele>
        <time>2014-08-11T09:47:31Z</time>
      </trkpt>
      <trkpt lat="44.37625" lon="5.51214">
        <ele>741.79</ele>
        <time>2014-08-11T09:48:00Z</time>
      </trkpt>
      <trkpt lat="44.37622" lon="5.51223">
        <ele>742.28</ele>
        <time>2014-08-11T09:48:23Z</time>
      </trkpt>
      <trkpt lat="44.37606" lon="5.51229">
        <ele>740.83</ele>
        <time>2014-08-11T09:48:38Z</time>
      </trkpt>
      <trkpt lat="44.37591" lon="5.51229">
        <ele>739.87</ele>
        <time>2014-08-11T09:48:54Z</time>
      </trkpt>
      <trkpt lat="44.37584" lon="5.5123">
        <ele>739.39</ele>
        <time>2014-08-11T09:49:17Z</time>
      </trkpt>
      <trkpt lat="44.37556" lon="5.51234">
        <ele>736.99</ele>
        <time>2014-08-11T09:49:39Z</time>
      </trkpt>
      <trkpt lat="44.37531" lon="5.51235">
        <ele>736.51</ele>
        <time>2014-08-11T09:50:00Z</time>
      </trkpt>
      <trkpt lat="44.37501" lon="5.51232">
        <ele>736.51</ele>
        <time>2014-08-11T09:50:24Z</time>
      </trkpt>
      <trkpt lat="44.37477" lon="5.5122">
        <ele>736.99</ele>
        <time>2014-08-11T09:50:45Z</time>
      </trkpt>
      <trkpt lat="44.37458" lon="5.51208">
        <ele>739.39</ele>
        <time>2014-08-11T09:51:03Z</time>
      </trkpt>
      <trkpt lat="44.37441" lon="5.51201">
        <ele>740.35</ele>
        <time>2014-08-11T09:51:18Z</time>
      </trkpt>
      <trkpt lat="44.37422" lon="5.51198">
        <ele>740.35</ele>
        <time>2014-08-11T09:51:35Z</time>
      </trkpt>
      <trkpt lat="44.37402" lon="5.51198">
        <ele>740.83</ele>
        <time>2014-08-11T09:51:52Z</time>
      </trkpt>
      <trkpt lat="44.37382" lon="5.51194">
        <ele>741.31</ele>
        <time>2014-08-11T09:52:10Z</time>
      </trkpt>
      <trkpt lat="44.37361" lon="5.51191">
        <ele>743.24</ele>
        <time>2014-08-11T09:52:27Z</time>
      </trkpt>
      <trkpt lat="44.37352" lon="5.5119">
        <ele>743.72</ele>
        <time>2014-08-11T09:52:35Z</time>
      </trkpt>
      <trkpt lat="44.37347" lon="5.51189">
        <ele>743.72</ele>
        <time>2014-08-11T09:52:39Z</time>
      </trkpt>
      <trkpt lat="44.37327" lon="5.51185">
        <ele>745.64</ele>
        <time>2014-08-11T09:52:58Z</time>
      </trkpt>
      <trkpt lat="44.37311" lon="5.51181">
        <ele>746.12</ele>
        <time>2014-08-11T09:53:12Z</time>
      </trkpt>
      <trkpt lat="44.37291" lon="5.51178">
        <ele>747.08</ele>
        <time>2014-08-11T09:53:30Z</time>
      </trkpt>
      <trkpt lat="44.37276" lon="5.51172">
        <ele>749</ele>
        <time>2014-08-11T09:53:46Z</time>
      </trkpt>
      <trkpt lat="44.37255" lon="5.51172">
        <ele>749</ele>
        <time>2014-08-11T09:54:03Z</time>
      </trkpt>
      <trkpt lat="44.37238" lon="5.51167">
        <ele>749.97</ele>
        <time>2014-08-11T09:54:18Z</time>
      </trkpt>
      <trkpt lat="44.37228" lon="5.51165">
        <ele>750.45</ele>
        <time>2014-08-11T09:54:28Z</time>
      </trkpt>
      <trkpt lat="44.37203" lon="5.51156">
        <ele>752.37</ele>
        <time>2014-08-11T09:54:49Z</time>
      </trkpt>
      <trkpt lat="44.37185" lon="5.51147">
        <ele>754.77</ele>
        <time>2014-08-11T09:55:07Z</time>
      </trkpt>
      <trkpt lat="44.37166" lon="5.51137">
        <ele>756.21</ele>
        <time>2014-08-11T09:55:25Z</time>
      </trkpt>
      <trkpt lat="44.37145" lon="5.51133">
        <ele>756.69</ele>
        <time>2014-08-11T09:55:43Z</time>
      </trkpt>
      <trkpt lat="44.37125" lon="5.51129">
        <ele>756.69</ele>
        <time>2014-08-11T09:56:01Z</time>
      </trkpt>
      <trkpt lat="44.37105" lon="5.5112">
        <ele>756.69</ele>
        <time>2014-08-11T09:56:19Z</time>
      </trkpt>
      <trkpt lat="44.37092" lon="5.5111">
        <ele>756.69</ele>
        <time>2014-08-11T09:56:32Z</time>
      </trkpt>
      <trkpt lat="44.3709" lon="5.51102">
        <ele>756.69</ele>
        <time>2014-08-11T09:56:37Z</time>
      </trkpt>
      <trkpt lat="44.37085" lon="5.51093">
        <ele>757.18</ele>
        <time>2014-08-11T09:56:45Z</time>
      </trkpt>
      <trkpt lat="44.37078" lon="5.51088">
        <ele>758.62</ele>
        <time>2014-08-11T09:57:01Z</time>
      </trkpt>
      <trkpt lat="44.37062" lon="5.51075">
        <ele>759.58</ele>
        <time>2014-08-11T09:57:19Z</time>
      </trkpt>
      <trkpt lat="44.37046" lon="5.51067">
        <ele>761.98</ele>
        <time>2014-08-11T09:57:35Z</time>
      </trkpt>
      <trkpt lat="44.37026" lon="5.5106">
        <ele>763.42</ele>
        <time>2014-08-11T09:57:54Z</time>
      </trkpt>
      <trkpt lat="44.37007" lon="5.51055">
        <ele>765.35</ele>
        <time>2014-08-11T09:58:12Z</time>
      </trkpt>
      <trkpt lat="44.36998" lon="5.51051">
        <ele>766.31</ele>
        <time>2014-08-11T09:58:21Z</time>
      </trkpt>
      <trkpt lat="44.36984" lon="5.51028">
        <ele>767.75</ele>
        <time>2014-08-11T09:58:42Z</time>
      </trkpt>
      <trkpt lat="44.36984" lon="5.51028">
        <ele>767.75</ele>
        <time>2014-08-11T09:59:01Z</time>
      </trkpt>
      <trkpt lat="44.36984" lon="5.51028">
        <ele>767.27</ele>
        <time>2014-08-11T09:59:34Z</time>
      </trkpt>
      <trkpt lat="44.36983" lon="5.51028">
        <ele>767.75</ele>
        <time>2014-08-11T09:59:59Z</time>
      </trkpt>
      <trkpt lat="44.36984" lon="5.51027">
        <ele>768.23</ele>
        <time>2014-08-11T10:00:31Z</time>
      </trkpt>
      <trkpt lat="44.36984" lon="5.51026">
        <ele>767.75</ele>
        <time>2014-08-11T10:01:02Z</time>
      </trkpt>
      <trkpt lat="44.36967" lon="5.51005">
        <ele>766.79</ele>
        <time>2014-08-11T10:01:20Z</time>
      </trkpt>
      <trkpt lat="44.3695" lon="5.50977">
        <ele>766.31</ele>
        <time>2014-08-11T10:01:40Z</time>
      </trkpt>
      <trkpt lat="44.36948" lon="5.50956">
        <ele>765.83</ele>
        <time>2014-08-11T10:01:56Z</time>
      </trkpt>
      <trkpt lat="44.36947" lon="5.50942">
        <ele>765.83</ele>
        <time>2014-08-11T10:02:10Z</time>
      </trkpt>
      <trkpt lat="44.36947" lon="5.50941">
        <ele>765.83</ele>
        <time>2014-08-11T10:02:11Z</time>
      </trkpt>
      <trkpt lat="44.36946" lon="5.50937">
        <ele>765.83</ele>
        <time>2014-08-11T10:02:23Z</time>
      </trkpt>
      <trkpt lat="44.36933" lon="5.50937">
        <ele>766.31</ele>
        <time>2014-08-11T10:02:38Z</time>
      </trkpt>
      <trkpt lat="44.36926" lon="5.50937">
        <ele>767.27</ele>
        <time>2014-08-11T10:02:45Z</time>
      </trkpt>
      <trkpt lat="44.36907" lon="5.50927">
        <ele>767.27</ele>
        <time>2014-08-11T10:03:04Z</time>
      </trkpt>
      <trkpt lat="44.36894" lon="5.50919">
        <ele>767.27</ele>
        <time>2014-08-11T10:03:17Z</time>
      </trkpt>
      <trkpt lat="44.36876" lon="5.50915">
        <ele>768.71</ele>
        <time>2014-08-11T10:03:34Z</time>
      </trkpt>
      <trkpt lat="44.36861" lon="5.50912">
        <ele>769.67</ele>
        <time>2014-08-11T10:03:48Z</time>
      </trkpt>
      <trkpt lat="44.36862" lon="5.50909">
        <ele>770.15</ele>
        <time>2014-08-11T10:04:06Z</time>
      </trkpt>
      <trkpt lat="44.36865" lon="5.5091">
        <ele>769.67</ele>
        <time>2014-08-11T10:04:36Z</time>
      </trkpt>
      <trkpt lat="44.36856" lon="5.50908">
        <ele>769.67</ele>
        <time>2014-08-11T10:05:04Z</time>
      </trkpt>
      <trkpt lat="44.36846" lon="5.50905">
        <ele>770.63</ele>
        <time>2014-08-11T10:05:13Z</time>
      </trkpt>
      <trkpt lat="44.36838" lon="5.50897">
        <ele>771.6</ele>
        <time>2014-08-11T10:05:28Z</time>
      </trkpt>
      <trkpt lat="44.36829" lon="5.50893">
        <ele>771.6</ele>
        <time>2014-08-11T10:05:47Z</time>
      </trkpt>
      <trkpt lat="44.36811" lon="5.50891">
        <ele>774</ele>
        <time>2014-08-11T10:06:04Z</time>
      </trkpt>
      <trkpt lat="44.36809" lon="5.50889">
        <ele>774</ele>
        <time>2014-08-11T10:06:07Z</time>
      </trkpt>
      <trkpt lat="44.3679" lon="5.50898">
        <ele>776.4</ele>
        <time>2014-08-11T10:06:25Z</time>
      </trkpt>
      <trkpt lat="44.36779" lon="5.50909">
        <ele>776.4</ele>
        <time>2014-08-11T10:06:40Z</time>
      </trkpt>
      <trkpt lat="44.36769" lon="5.50926">
        <ele>777.36</ele>
        <time>2014-08-11T10:06:57Z</time>
      </trkpt>
      <trkpt lat="44.3676" lon="5.5094">
        <ele>778.32</ele>
        <time>2014-08-11T10:07:14Z</time>
      </trkpt>
      <trkpt lat="44.36762" lon="5.5094">
        <ele>777.84</ele>
        <time>2014-08-11T10:07:36Z</time>
      </trkpt>
      <trkpt lat="44.36756" lon="5.50944">
        <ele>778.81</ele>
        <time>2014-08-11T10:07:57Z</time>
      </trkpt>
      <trkpt lat="44.36744" lon="5.50957">
        <ele>780.25</ele>
        <time>2014-08-11T10:08:13Z</time>
      </trkpt>
      <trkpt lat="44.36729" lon="5.50961">
        <ele>781.69</ele>
        <time>2014-08-11T10:08:29Z</time>
      </trkpt>
      <trkpt lat="44.3672" lon="5.50966">
        <ele>782.17</ele>
        <time>2014-08-11T10:08:42Z</time>
      </trkpt>
      <trkpt lat="44.36699" lon="5.50974">
        <ele>783.61</ele>
        <time>2014-08-11T10:09:03Z</time>
      </trkpt>
      <trkpt lat="44.36691" lon="5.50978">
        <ele>785.05</ele>
        <time>2014-08-11T10:09:18Z</time>
      </trkpt>
      <trkpt lat="44.36692" lon="5.50974">
        <ele>784.09</ele>
        <time>2014-08-11T10:09:43Z</time>
      </trkpt>
      <trkpt lat="44.36689" lon="5.50973">
        <ele>785.05</ele>
        <time>2014-08-11T10:10:16Z</time>
      </trkpt>
      <trkpt lat="44.3667" lon="5.50979">
        <ele>786.98</ele>
        <time>2014-08-11T10:10:33Z</time>
      </trkpt>
      <trkpt lat="44.36652" lon="5.5098">
        <ele>788.42</ele>
        <time>2014-08-11T10:10:50Z</time>
      </trkpt>
      <trkpt lat="44.36639" lon="5.50972">
        <ele>787.46</ele>
        <time>2014-08-11T10:11:02Z</time>
      </trkpt>
      <trkpt lat="44.36619" lon="5.50957">
        <ele>787.46</ele>
        <time>2014-08-11T10:11:21Z</time>
      </trkpt>
      <trkpt lat="44.36601" lon="5.50945">
        <ele>787.46</ele>
        <time>2014-08-11T10:11:40Z</time>
      </trkpt>
      <trkpt lat="44.36586" lon="5.50937">
        <ele>789.38</ele>
        <time>2014-08-11T10:11:56Z</time>
      </trkpt>
      <trkpt lat="44.3657" lon="5.50927">
        <ele>790.82</ele>
        <time>2014-08-11T10:12:13Z</time>
      </trkpt>
      <trkpt lat="44.36552" lon="5.50917">
        <ele>792.74</ele>
        <time>2014-08-11T10:12:30Z</time>
      </trkpt>
      <trkpt lat="44.36538" lon="5.50909">
        <ele>794.19</ele>
        <time>2014-08-11T10:12:47Z</time>
      </trkpt>
      <trkpt lat="44.36524" lon="5.50903">
        <ele>795.63</ele>
        <time>2014-08-11T10:13:03Z</time>
      </trkpt>
      <trkpt lat="44.36507" lon="5.50901">
        <ele>798.03</ele>
        <time>2014-08-11T10:13:20Z</time>
      </trkpt>
      <trkpt lat="44.36493" lon="5.50907">
        <ele>800.92</ele>
        <time>2014-08-11T10:13:39Z</time>
      </trkpt>
      <trkpt lat="44.3648" lon="5.50908">
        <ele>803.32</ele>
        <time>2014-08-11T10:13:53Z</time>
      </trkpt>
      <trkpt lat="44.36464" lon="5.50902">
        <ele>805.72</ele>
        <time>2014-08-11T10:14:09Z</time>
      </trkpt>
      <trkpt lat="44.36445" lon="5.50895">
        <ele>806.2</ele>
        <time>2014-08-11T10:14:28Z</time>
      </trkpt>
      <trkpt lat="44.36433" lon="5.50891">
        <ele>808.13</ele>
        <time>2014-08-11T10:14:43Z</time>
      </trkpt>
      <trkpt lat="44.36418" lon="5.50886">
        <ele>809.09</ele>
        <time>2014-08-11T10:15:01Z</time>
      </trkpt>
      <trkpt lat="44.36405" lon="5.50882">
        <ele>811.01</ele>
        <time>2014-08-11T10:15:17Z</time>
      </trkpt>
      <trkpt lat="44.36392" lon="5.5088">
        <ele>813.89</ele>
        <time>2014-08-11T10:15:34Z</time>
      </trkpt>
      <trkpt lat="44.36377" lon="5.50884">
        <ele>816.3</ele>
        <time>2014-08-11T10:15:51Z</time>
      </trkpt>
      <trkpt lat="44.36364" lon="5.50889">
        <ele>817.26</ele>
        <time>2014-08-11T10:16:07Z</time>
      </trkpt>
      <trkpt lat="44.36354" lon="5.50892">
        <ele>818.7</ele>
        <time>2014-08-11T10:16:19Z</time>
      </trkpt>
      <trkpt lat="44.36341" lon="5.50899">
        <ele>820.14</ele>
        <time>2014-08-11T10:16:35Z</time>
      </trkpt>
      <trkpt lat="44.36329" lon="5.50903">
        <ele>822.06</ele>
        <time>2014-08-11T10:16:49Z</time>
      </trkpt>
      <trkpt lat="44.36316" lon="5.50903">
        <ele>824.47</ele>
        <time>2014-08-11T10:17:05Z</time>
      </trkpt>
      <trkpt lat="44.36305" lon="5.50901">
        <ele>825.91</ele>
        <time>2014-08-11T10:17:20Z</time>
      </trkpt>
      <trkpt lat="44.36292" lon="5.50899">
        <ele>827.83</ele>
        <time>2014-08-11T10:17:37Z</time>
      </trkpt>
      <trkpt lat="44.36278" lon="5.509">
        <ele>829.76</ele>
        <time>2014-08-11T10:17:52Z</time>
      </trkpt>
      <trkpt lat="44.36265" lon="5.509">
        <ele>831.2</ele>
        <time>2014-08-11T10:18:08Z</time>
      </trkpt>
      <trkpt lat="44.36253" lon="5.50898">
        <ele>832.64</ele>
        <time>2014-08-11T10:18:22Z</time>
      </trkpt>
      <trkpt lat="44.36239" lon="5.50896">
        <ele>833.6</ele>
        <time>2014-08-11T10:18:37Z</time>
      </trkpt>
      <trkpt lat="44.36229" lon="5.50889">
        <ele>835.04</ele>
        <time>2014-08-11T10:18:53Z</time>
      </trkpt>
      <trkpt lat="44.3623" lon="5.5087">
        <ele>836.48</ele>
        <time>2014-08-11T10:19:09Z</time>
      </trkpt>
      <trkpt lat="44.36228" lon="5.50869">
        <ele>836.96</ele>
        <time>2014-08-11T10:19:27Z</time>
      </trkpt>
      <trkpt lat="44.36228" lon="5.50869">
        <ele>836.48</ele>
        <time>2014-08-11T10:19:57Z</time>
      </trkpt>
      <trkpt lat="44.36234" lon="5.50853">
        <ele>838.41</ele>
        <time>2014-08-11T10:20:14Z</time>
      </trkpt>
      <trkpt lat="44.3624" lon="5.50829">
        <ele>839.37</ele>
        <time>2014-08-11T10:20:32Z</time>
      </trkpt>
      <trkpt lat="44.36248" lon="5.50806">
        <ele>839.85</ele>
        <time>2014-08-11T10:20:50Z</time>
      </trkpt>
      <trkpt lat="44.36252" lon="5.50788">
        <ele>841.77</ele>
        <time>2014-08-11T10:21:05Z</time>
      </trkpt>
      <trkpt lat="44.36253" lon="5.50767">
        <ele>841.29</ele>
        <time>2014-08-11T10:21:20Z</time>
      </trkpt>
      <trkpt lat="44.36257" lon="5.50738">
        <ele>841.29</ele>
        <time>2014-08-11T10:21:39Z</time>
      </trkpt>
      <trkpt lat="44.36264" lon="5.50714">
        <ele>840.33</ele>
        <time>2014-08-11T10:21:59Z</time>
      </trkpt>
      <trkpt lat="44.36258" lon="5.50688">
        <ele>837.45</ele>
        <time>2014-08-11T10:22:15Z</time>
      </trkpt>
      <trkpt lat="44.36254" lon="5.50676">
        <ele>836.48</ele>
        <time>2014-08-11T10:22:27Z</time>
      </trkpt>
      <trkpt lat="44.36253" lon="5.50649">
        <ele>835.52</ele>
        <time>2014-08-11T10:22:45Z</time>
      </trkpt>
      <trkpt lat="44.3625" lon="5.50617">
        <ele>835.04</ele>
        <time>2014-08-11T10:23:05Z</time>
      </trkpt>
      <trkpt lat="44.36247" lon="5.5061">
        <ele>835.52</ele>
        <time>2014-08-11T10:23:11Z</time>
      </trkpt>
      <trkpt lat="44.36239" lon="5.5059">
        <ele>835.04</ele>
        <time>2014-08-11T10:23:27Z</time>
      </trkpt>
      <trkpt lat="44.36228" lon="5.50574">
        <ele>834.08</ele>
        <time>2014-08-11T10:23:44Z</time>
      </trkpt>
      <trkpt lat="44.36223" lon="5.50571">
        <ele>834.56</ele>
        <time>2014-08-11T10:23:52Z</time>
      </trkpt>
      <trkpt lat="44.36209" lon="5.50554">
        <ele>835.52</ele>
        <time>2014-08-11T10:24:09Z</time>
      </trkpt>
      <trkpt lat="44.36207" lon="5.50552">
        <ele>835.52</ele>
        <time>2014-08-11T10:24:25Z</time>
      </trkpt>
      <trkpt lat="44.36208" lon="5.50544">
        <ele>835.52</ele>
        <time>2014-08-11T10:24:40Z</time>
      </trkpt>
      <trkpt lat="44.36208" lon="5.50547">
        <ele>835.04</ele>
        <time>2014-08-11T10:24:57Z</time>
      </trkpt>
      <trkpt lat="44.36208" lon="5.50548">
        <ele>835.04</ele>
        <time>2014-08-11T10:25:31Z</time>
      </trkpt>
      <trkpt lat="44.36207" lon="5.50546">
        <ele>835.04</ele>
        <time>2014-08-11T10:26:04Z</time>
      </trkpt>
      <trkpt lat="44.36206" lon="5.50545">
        <ele>835.52</ele>
        <time>2014-08-11T10:26:35Z</time>
      </trkpt>
      <trkpt lat="44.36205" lon="5.50549">
        <ele>835.04</ele>
        <time>2014-08-11T10:27:10Z</time>
      </trkpt>
      <trkpt lat="44.36204" lon="5.50548">
        <ele>835.04</ele>
        <time>2014-08-11T10:27:46Z</time>
      </trkpt>
      <trkpt lat="44.36203" lon="5.50549">
        <ele>835.04</ele>
        <time>2014-08-11T10:28:20Z</time>
      </trkpt>
      <trkpt lat="44.36203" lon="5.50551">
        <ele>835.52</ele>
        <time>2014-08-11T10:28:58Z</time>
      </trkpt>
      <trkpt lat="44.36201" lon="5.50552">
        <ele>835.52</ele>
        <time>2014-08-11T10:29:38Z</time>
      </trkpt>
      <trkpt lat="44.36204" lon="5.50556">
        <ele>835.52</ele>
        <time>2014-08-11T10:30:20Z</time>
      </trkpt>
      <trkpt lat="44.36202" lon="5.5055">
        <ele>835.52</ele>
        <time>2014-08-11T10:31:01Z</time>
      </trkpt>
      <trkpt lat="44.36202" lon="5.50548">
        <ele>836.48</ele>
        <time>2014-08-11T10:31:42Z</time>
      </trkpt>
      <trkpt lat="44.36204" lon="5.50544">
        <ele>836.48</ele>
        <time>2014-08-11T10:32:16Z</time>
      </trkpt>
      <trkpt lat="44.36204" lon="5.50547">
        <ele>836.48</ele>
        <time>2014-08-11T10:32:47Z</time>
      </trkpt>
      <trkpt lat="44.36206" lon="5.50546">
        <ele>836.96</ele>
        <time>2014-08-11T10:33:19Z</time>
      </trkpt>
      <trkpt lat="44.36203" lon="5.50549">
        <ele>837.45</ele>
        <time>2014-08-11T10:33:59Z</time>
      </trkpt>
      <trkpt lat="44.36203" lon="5.50549">
        <ele>837.45</ele>
        <time>2014-08-11T10:34:37Z</time>
      </trkpt>
      <trkpt lat="44.36207" lon="5.50548">
        <ele>837.93</ele>
        <time>2014-08-11T10:35:19Z</time>
      </trkpt>
      <trkpt lat="44.36207" lon="5.50547">
        <ele>837.45</ele>
        <time>2014-08-11T10:35:58Z</time>
      </trkpt>
      <trkpt lat="44.36205" lon="5.50548">
        <ele>838.41</ele>
        <time>2014-08-11T10:36:28Z</time>
      </trkpt>
      <trkpt lat="44.36205" lon="5.50548">
        <ele>837.93</ele>
        <time>2014-08-11T10:36:59Z</time>
      </trkpt>
      <trkpt lat="44.36201" lon="5.50553">
        <ele>838.41</ele>
        <time>2014-08-11T10:37:42Z</time>
      </trkpt>
      <trkpt lat="44.36197" lon="5.50555">
        <ele>838.89</ele>
        <time>2014-08-11T10:38:22Z</time>
      </trkpt>
      <trkpt lat="44.36208" lon="5.50545">
        <ele>838.89</ele>
        <time>2014-08-11T10:38:56Z</time>
      </trkpt>
      <trkpt lat="44.36209" lon="5.50545">
        <ele>838.89</ele>
        <time>2014-08-11T10:39:23Z</time>
      </trkpt>
      <trkpt lat="44.36206" lon="5.50545">
        <ele>838.89</ele>
        <time>2014-08-11T10:39:48Z</time>
      </trkpt>
      <trkpt lat="44.36208" lon="5.50545">
        <ele>838.89</ele>
        <time>2014-08-11T10:40:20Z</time>
      </trkpt>
      <trkpt lat="44.36206" lon="5.50552">
        <ele>838.89</ele>
        <time>2014-08-11T10:40:55Z</time>
      </trkpt>
      <trkpt lat="44.36208" lon="5.50547">
        <ele>839.37</ele>
        <time>2014-08-11T10:41:26Z</time>
      </trkpt>
      <trkpt lat="44.36208" lon="5.50547">
        <ele>839.37</ele>
        <time>2014-08-11T10:42:00Z</time>
      </trkpt>
      <trkpt lat="44.36207" lon="5.50546">
        <ele>834.56</ele>
        <time>2014-08-11T10:42:12Z</time>
      </trkpt>
      <trkpt lat="44.36208" lon="5.50546">
        <ele>841.29</ele>
        <time>2014-08-11T10:42:13Z</time>
      </trkpt>
      <trkpt lat="44.36208" lon="5.50547">
        <ele>839.85</ele>
        <time>2014-08-11T10:42:16Z</time>
      </trkpt>
      <trkpt lat="44.36211" lon="5.50547">
        <ele>839.85</ele>
        <time>2014-08-11T10:42:39Z</time>
      </trkpt>
      <trkpt lat="44.36211" lon="5.50546">
        <ele>839.85</ele>
        <time>2014-08-11T10:43:09Z</time>
      </trkpt>
      <trkpt lat="44.3621" lon="5.50548">
        <ele>840.33</ele>
        <time>2014-08-11T10:43:36Z</time>
      </trkpt>
      <trkpt lat="44.36206" lon="5.50543">
        <ele>840.33</ele>
        <time>2014-08-11T10:43:59Z</time>
      </trkpt>
      <trkpt lat="44.36208" lon="5.5054">
        <ele>840.81</ele>
        <time>2014-08-11T10:44:14Z</time>
      </trkpt>
      <trkpt lat="44.36208" lon="5.50542">
        <ele>840.33</ele>
        <time>2014-08-11T10:44:35Z</time>
      </trkpt>
      <trkpt lat="44.36203" lon="5.50533">
        <ele>841.29</ele>
        <time>2014-08-11T10:44:54Z</time>
      </trkpt>
      <trkpt lat="44.36198" lon="5.50522">
        <ele>841.29</ele>
        <time>2014-08-11T10:45:22Z</time>
      </trkpt>
      <trkpt lat="44.36192" lon="5.50511">
        <ele>839.85</ele>
        <time>2014-08-11T10:45:32Z</time>
      </trkpt>
      <trkpt lat="44.36188" lon="5.50502">
        <ele>838.89</ele>
        <time>2014-08-11T10:45:38Z</time>
      </trkpt>
      <trkpt lat="44.3618" lon="5.5047">
        <ele>838.41</ele>
        <time>2014-08-11T10:45:58Z</time>
      </trkpt>
      <trkpt lat="44.36174" lon="5.5044">
        <ele>837.45</ele>
        <time>2014-08-11T10:46:17Z</time>
      </trkpt>
      <trkpt lat="44.3617" lon="5.50422">
        <ele>837.93</ele>
        <time>2014-08-11T10:46:34Z</time>
      </trkpt>
      <trkpt lat="44.36168" lon="5.50418">
        <ele>837.45</ele>
        <time>2014-08-11T10:46:45Z</time>
      </trkpt>
      <trkpt lat="44.36165" lon="5.50419">
        <ele>837.45</ele>
        <time>2014-08-11T10:46:56Z</time>
      </trkpt>
      <trkpt lat="44.36152" lon="5.50393">
        <ele>836.96</ele>
        <time>2014-08-11T10:47:14Z</time>
      </trkpt>
      <trkpt lat="44.36148" lon="5.50373">
        <ele>837.45</ele>
        <time>2014-08-11T10:47:32Z</time>
      </trkpt>
      <trkpt lat="44.36146" lon="5.5037">
        <ele>837.93</ele>
        <time>2014-08-11T10:47:47Z</time>
      </trkpt>
      <trkpt lat="44.36139" lon="5.5036">
        <ele>840.33</ele>
        <time>2014-08-11T10:48:01Z</time>
      </trkpt>
      <trkpt lat="44.36129" lon="5.50349">
        <ele>842.25</ele>
        <time>2014-08-11T10:48:16Z</time>
      </trkpt>
      <trkpt lat="44.36123" lon="5.50344">
        <ele>843.21</ele>
        <time>2014-08-11T10:48:23Z</time>
      </trkpt>
      <trkpt lat="44.36112" lon="5.50334">
        <ele>843.21</ele>
        <time>2014-08-11T10:48:43Z</time>
      </trkpt>
      <trkpt lat="44.36095" lon="5.50311">
        <ele>843.21</ele>
        <time>2014-08-11T10:49:04Z</time>
      </trkpt>
      <trkpt lat="44.36086" lon="5.50286">
        <ele>843.69</ele>
        <time>2014-08-11T10:49:22Z</time>
      </trkpt>
      <trkpt lat="44.36084" lon="5.50278">
        <ele>844.18</ele>
        <time>2014-08-11T10:49:28Z</time>
      </trkpt>
      <trkpt lat="44.36078" lon="5.50247">
        <ele>843.69</ele>
        <time>2014-08-11T10:49:50Z</time>
      </trkpt>
      <trkpt lat="44.36075" lon="5.5024">
        <ele>843.69</ele>
        <time>2014-08-11T10:49:55Z</time>
      </trkpt>
      <trkpt lat="44.36071" lon="5.50234">
        <ele>842.25</ele>
        <time>2014-08-11T10:50:14Z</time>
      </trkpt>
      <trkpt lat="44.36066" lon="5.50216">
        <ele>840.33</ele>
        <time>2014-08-11T10:50:28Z</time>
      </trkpt>
      <trkpt lat="44.36056" lon="5.50193">
        <ele>838.89</ele>
        <time>2014-08-11T10:50:46Z</time>
      </trkpt>
      <trkpt lat="44.36051" lon="5.50175">
        <ele>841.29</ele>
        <time>2014-08-11T10:51:00Z</time>
      </trkpt>
      <trkpt lat="44.36043" lon="5.50155">
        <ele>840.81</ele>
        <time>2014-08-11T10:51:15Z</time>
      </trkpt>
      <trkpt lat="44.36027" lon="5.50128">
        <ele>840.33</ele>
        <time>2014-08-11T10:51:37Z</time>
      </trkpt>
      <trkpt lat="44.36021" lon="5.50116">
        <ele>841.77</ele>
        <time>2014-08-11T10:51:52Z</time>
      </trkpt>
      <trkpt lat="44.36019" lon="5.5011">
        <ele>841.77</ele>
        <time>2014-08-11T10:51:56Z</time>
      </trkpt>
      <trkpt lat="44.36015" lon="5.50078">
        <ele>840.81</ele>
        <time>2014-08-11T10:52:16Z</time>
      </trkpt>
      <trkpt lat="44.3602" lon="5.50053">
        <ele>841.77</ele>
        <time>2014-08-11T10:52:36Z</time>
      </trkpt>
      <trkpt lat="44.36022" lon="5.50021">
        <ele>843.21</ele>
        <time>2014-08-11T10:52:57Z</time>
      </trkpt>
      <trkpt lat="44.36025" lon="5.49998">
        <ele>842.73</ele>
        <time>2014-08-11T10:53:14Z</time>
      </trkpt>
      <trkpt lat="44.36025" lon="5.49971">
        <ele>842.73</ele>
        <time>2014-08-11T10:53:32Z</time>
      </trkpt>
      <trkpt lat="44.36022" lon="5.49944">
        <ele>843.21</ele>
        <time>2014-08-11T10:53:50Z</time>
      </trkpt>
      <trkpt lat="44.36017" lon="5.49917">
        <ele>843.21</ele>
        <time>2014-08-11T10:54:09Z</time>
      </trkpt>
      <trkpt lat="44.36003" lon="5.49902">
        <ele>845.14</ele>
        <time>2014-08-11T10:54:27Z</time>
      </trkpt>
      <trkpt lat="44.35991" lon="5.49884">
        <ele>845.62</ele>
        <time>2014-08-11T10:54:44Z</time>
      </trkpt>
      <trkpt lat="44.35982" lon="5.49861">
        <ele>846.1</ele>
        <time>2014-08-11T10:55:04Z</time>
      </trkpt>
      <trkpt lat="44.35969" lon="5.49848">
        <ele>848.5</ele>
        <time>2014-08-11T10:55:23Z</time>
      </trkpt>
      <trkpt lat="44.35958" lon="5.49835">
        <ele>851.38</ele>
        <time>2014-08-11T10:55:41Z</time>
      </trkpt>
      <trkpt lat="44.35948" lon="5.49825">
        <ele>853.31</ele>
        <time>2014-08-11T10:55:57Z</time>
      </trkpt>
      <trkpt lat="44.35942" lon="5.49811">
        <ele>855.71</ele>
        <time>2014-08-11T10:56:13Z</time>
      </trkpt>
      <trkpt lat="44.35933" lon="5.49805">
        <ele>858.11</ele>
        <time>2014-08-11T10:56:29Z</time>
      </trkpt>
      <trkpt lat="44.35926" lon="5.4979">
        <ele>860.52</ele>
        <time>2014-08-11T10:56:47Z</time>
      </trkpt>
      <trkpt lat="44.35922" lon="5.49782">
        <ele>863.88</ele>
        <time>2014-08-11T10:57:03Z</time>
      </trkpt>
      <trkpt lat="44.35914" lon="5.49776">
        <ele>866.29</ele>
        <time>2014-08-11T10:57:21Z</time>
      </trkpt>
      <trkpt lat="44.3591" lon="5.49769">
        <ele>868.21</ele>
        <time>2014-08-11T10:57:37Z</time>
      </trkpt>
      <trkpt lat="44.35903" lon="5.49758">
        <ele>870.13</ele>
        <time>2014-08-11T10:57:53Z</time>
      </trkpt>
      <trkpt lat="44.3589" lon="5.49748">
        <ele>871.57</ele>
        <time>2014-08-11T10:58:12Z</time>
      </trkpt>
      <trkpt lat="44.35883" lon="5.49734">
        <ele>873.01</ele>
        <time>2014-08-11T10:58:30Z</time>
      </trkpt>
      <trkpt lat="44.35881" lon="5.49717">
        <ele>874.46</ele>
        <time>2014-08-11T10:58:48Z</time>
      </trkpt>
      <trkpt lat="44.35873" lon="5.49708">
        <ele>874.46</ele>
        <time>2014-08-11T10:59:03Z</time>
      </trkpt>
      <trkpt lat="44.35871" lon="5.49688">
        <ele>873.98</ele>
        <time>2014-08-11T10:59:19Z</time>
      </trkpt>
      <trkpt lat="44.35871" lon="5.49682">
        <ele>874.46</ele>
        <time>2014-08-11T10:59:37Z</time>
      </trkpt>
      <trkpt lat="44.35866" lon="5.49677">
        <ele>874.46</ele>
        <time>2014-08-11T11:00:05Z</time>
      </trkpt>
      <trkpt lat="44.35863" lon="5.4968">
        <ele>874.94</ele>
        <time>2014-08-11T11:00:31Z</time>
      </trkpt>
      <trkpt lat="44.3586" lon="5.4968">
        <ele>874.46</ele>
        <time>2014-08-11T11:01:04Z</time>
      </trkpt>
      <trkpt lat="44.35858" lon="5.49672">
        <ele>873.98</ele>
        <time>2014-08-11T11:01:27Z</time>
      </trkpt>
      <trkpt lat="44.3586" lon="5.49652">
        <ele>874.94</ele>
        <time>2014-08-11T11:01:45Z</time>
      </trkpt>
      <trkpt lat="44.35863" lon="5.49628">
        <ele>875.9</ele>
        <time>2014-08-11T11:02:05Z</time>
      </trkpt>
      <trkpt lat="44.35856" lon="5.49594">
        <ele>877.82</ele>
        <time>2014-08-11T11:02:25Z</time>
      </trkpt>
      <trkpt lat="44.35854" lon="5.4957">
        <ele>878.78</ele>
        <time>2014-08-11T11:02:42Z</time>
      </trkpt>
      <trkpt lat="44.3585" lon="5.49544">
        <ele>881.19</ele>
        <time>2014-08-11T11:03:02Z</time>
      </trkpt>
      <trkpt lat="44.35849" lon="5.49521">
        <ele>881.67</ele>
        <time>2014-08-11T11:03:19Z</time>
      </trkpt>
      <trkpt lat="44.35848" lon="5.49486">
        <ele>881.67</ele>
        <time>2014-08-11T11:03:38Z</time>
      </trkpt>
      <trkpt lat="44.3585" lon="5.49462">
        <ele>881.67</ele>
        <time>2014-08-11T11:03:54Z</time>
      </trkpt>
      <trkpt lat="44.35843" lon="5.49433">
        <ele>879.74</ele>
        <time>2014-08-11T11:04:12Z</time>
      </trkpt>
      <trkpt lat="44.3584" lon="5.49408">
        <ele>880.22</ele>
        <time>2014-08-11T11:04:29Z</time>
      </trkpt>
      <trkpt lat="44.35835" lon="5.49392">
        <ele>880.22</ele>
        <time>2014-08-11T11:04:47Z</time>
      </trkpt>
      <trkpt lat="44.35835" lon="5.49392">
        <ele>880.22</ele>
        <time>2014-08-11T11:05:07Z</time>
      </trkpt>
      <trkpt lat="44.3584" lon="5.49388">
        <ele>880.22</ele>
        <time>2014-08-11T11:05:48Z</time>
      </trkpt>
      <trkpt lat="44.35828" lon="5.49383">
        <ele>880.71</ele>
        <time>2014-08-11T11:06:18Z</time>
      </trkpt>
      <trkpt lat="44.35821" lon="5.49365">
        <ele>879.74</ele>
        <time>2014-08-11T11:06:36Z</time>
      </trkpt>
      <trkpt lat="44.35811" lon="5.49356">
        <ele>880.22</ele>
        <time>2014-08-11T11:06:48Z</time>
      </trkpt>
      <trkpt lat="44.35801" lon="5.4934">
        <ele>878.3</ele>
        <time>2014-08-11T11:07:03Z</time>
      </trkpt>
      <trkpt lat="44.35794" lon="5.49325">
        <ele>878.3</ele>
        <time>2014-08-11T11:07:22Z</time>
      </trkpt>
      <trkpt lat="44.35789" lon="5.4932">
        <ele>877.82</ele>
        <time>2014-08-11T11:07:36Z</time>
      </trkpt>
      <trkpt lat="44.3578" lon="5.49316">
        <ele>876.86</ele>
        <time>2014-08-11T11:08:02Z</time>
      </trkpt>
      <trkpt lat="44.35768" lon="5.49303">
        <ele>875.42</ele>
        <time>2014-08-11T11:08:19Z</time>
      </trkpt>
      <trkpt lat="44.35758" lon="5.49287">
        <ele>873.5</ele>
        <time>2014-08-11T11:08:36Z</time>
      </trkpt>
      <trkpt lat="44.35756" lon="5.49283">
        <ele>873.5</ele>
        <time>2014-08-11T11:08:39Z</time>
      </trkpt>
      <trkpt lat="44.35741" lon="5.49266">
        <ele>873.5</ele>
        <time>2014-08-11T11:08:56Z</time>
      </trkpt>
      <trkpt lat="44.35724" lon="5.49258">
        <ele>873.98</ele>
        <time>2014-08-11T11:09:12Z</time>
      </trkpt>
      <trkpt lat="44.35722" lon="5.4926">
        <ele>873.01</ele>
        <time>2014-08-11T11:09:34Z</time>
      </trkpt>
      <trkpt lat="44.35718" lon="5.49258">
        <ele>873.5</ele>
        <time>2014-08-11T11:10:03Z</time>
      </trkpt>
      <trkpt lat="44.35711" lon="5.4925">
        <ele>873.98</ele>
        <time>2014-08-11T11:10:17Z</time>
      </trkpt>
      <trkpt lat="44.35706" lon="5.49234">
        <ele>875.42</ele>
        <time>2014-08-11T11:10:34Z</time>
      </trkpt>
      <trkpt lat="44.35698" lon="5.49214">
        <ele>873.98</ele>
        <time>2014-08-11T11:10:51Z</time>
      </trkpt>
      <trkpt lat="44.35694" lon="5.49207">
        <ele>872.05</ele>
        <time>2014-08-11T11:10:56Z</time>
      </trkpt>
      <trkpt lat="44.35687" lon="5.49197">
        <ele>871.09</ele>
        <time>2014-08-11T11:11:10Z</time>
      </trkpt>
      <trkpt lat="44.35684" lon="5.49188">
        <ele>868.21</ele>
        <time>2014-08-11T11:11:25Z</time>
      </trkpt>
      <trkpt lat="44.35695" lon="5.49187">
        <ele>868.21</ele>
        <time>2014-08-11T11:11:52Z</time>
      </trkpt>
      <trkpt lat="44.35703" lon="5.49177">
        <ele>867.73</ele>
        <time>2014-08-11T11:12:29Z</time>
      </trkpt>
      <trkpt lat="44.35698" lon="5.49181">
        <ele>868.21</ele>
        <time>2014-08-11T11:12:58Z</time>
      </trkpt>
      <trkpt lat="44.35678" lon="5.49182">
        <ele>867.25</ele>
        <time>2014-08-11T11:13:24Z</time>
      </trkpt>
      <trkpt lat="44.35673" lon="5.49188">
        <ele>867.25</ele>
        <time>2014-08-11T11:13:53Z</time>
      </trkpt>
      <trkpt lat="44.35678" lon="5.49194">
        <ele>869.65</ele>
        <time>2014-08-11T11:14:13Z</time>
      </trkpt>
      <trkpt lat="44.35686" lon="5.492">
        <ele>871.09</ele>
        <time>2014-08-11T11:14:30Z</time>
      </trkpt>
      <trkpt lat="44.35697" lon="5.4922">
        <ele>873.5</ele>
        <time>2014-08-11T11:14:52Z</time>
      </trkpt>
      <trkpt lat="44.35706" lon="5.49237">
        <ele>872.53</ele>
        <time>2014-08-11T11:15:09Z</time>
      </trkpt>
      <trkpt lat="44.35722" lon="5.49252">
        <ele>872.53</ele>
        <time>2014-08-11T11:15:26Z</time>
      </trkpt>
      <trkpt lat="44.35723" lon="5.49253">
        <ele>873.01</ele>
        <time>2014-08-11T11:15:28Z</time>
      </trkpt>
      <trkpt lat="44.35737" lon="5.49266">
        <ele>871.57</ele>
        <time>2014-08-11T11:15:45Z</time>
      </trkpt>
      <trkpt lat="44.35747" lon="5.49279">
        <ele>872.05</ele>
        <time>2014-08-11T11:16:02Z</time>
      </trkpt>
      <trkpt lat="44.35762" lon="5.49298">
        <ele>873.98</ele>
        <time>2014-08-11T11:16:19Z</time>
      </trkpt>
      <trkpt lat="44.3578" lon="5.49314">
        <ele>875.42</ele>
        <time>2014-08-11T11:16:39Z</time>
      </trkpt>
      <trkpt lat="44.35791" lon="5.49331">
        <ele>876.38</ele>
        <time>2014-08-11T11:16:55Z</time>
      </trkpt>
      <trkpt lat="44.35805" lon="5.4935">
        <ele>877.34</ele>
        <time>2014-08-11T11:17:13Z</time>
      </trkpt>
      <trkpt lat="44.35818" lon="5.49357">
        <ele>877.82</ele>
        <time>2014-08-11T11:17:29Z</time>
      </trkpt>
      <trkpt lat="44.35829" lon="5.49379">
        <ele>878.3</ele>
        <time>2014-08-11T11:17:47Z</time>
      </trkpt>
      <trkpt lat="44.35838" lon="5.49397">
        <ele>878.3</ele>
        <time>2014-08-11T11:18:05Z</time>
      </trkpt>
      <trkpt lat="44.35841" lon="5.49411">
        <ele>879.74</ele>
        <time>2014-08-11T11:18:28Z</time>
      </trkpt>
      <trkpt lat="44.35844" lon="5.49422">
        <ele>881.19</ele>
        <time>2014-08-11T11:18:45Z</time>
      </trkpt>
      <trkpt lat="44.35853" lon="5.49436">
        <ele>883.59</ele>
        <time>2014-08-11T11:19:03Z</time>
      </trkpt>
      <trkpt lat="44.35859" lon="5.49451">
        <ele>887.43</ele>
        <time>2014-08-11T11:19:19Z</time>
      </trkpt>
      <trkpt lat="44.35865" lon="5.49455">
        <ele>890.32</ele>
        <time>2014-08-11T11:19:36Z</time>
      </trkpt>
      <trkpt lat="44.3587" lon="5.49467">
        <ele>893.2</ele>
        <time>2014-08-11T11:19:56Z</time>
      </trkpt>
      <trkpt lat="44.35877" lon="5.49475">
        <ele>896.57</ele>
        <time>2014-08-11T11:20:14Z</time>
      </trkpt>
      <trkpt lat="44.35872" lon="5.49478">
        <ele>897.05</ele>
        <time>2014-08-11T11:20:32Z</time>
      </trkpt>
      <trkpt lat="44.35878" lon="5.49483">
        <ele>897.53</ele>
        <time>2014-08-11T11:20:48Z</time>
      </trkpt>
      <trkpt lat="44.35881" lon="5.49502">
        <ele>899.45</ele>
        <time>2014-08-11T11:21:05Z</time>
      </trkpt>
      <trkpt lat="44.35885" lon="5.49511">
        <ele>901.85</ele>
        <time>2014-08-11T11:21:20Z</time>
      </trkpt>
      <trkpt lat="44.35892" lon="5.49516">
        <ele>905.22</ele>
        <time>2014-08-11T11:21:37Z</time>
      </trkpt>
      <trkpt lat="44.35901" lon="5.49532">
        <ele>908.1</ele>
        <time>2014-08-11T11:21:57Z</time>
      </trkpt>
      <trkpt lat="44.35908" lon="5.49535">
        <ele>910.51</ele>
        <time>2014-08-11T11:22:14Z</time>
      </trkpt>
      <trkpt lat="44.35907" lon="5.49545">
        <ele>912.43</ele>
        <time>2014-08-11T11:22:30Z</time>
      </trkpt>
      <trkpt lat="44.3591" lon="5.49544">
        <ele>915.79</ele>
        <time>2014-08-11T11:22:46Z</time>
      </trkpt>
      <trkpt lat="44.35909" lon="5.49543">
        <ele>915.31</ele>
        <time>2014-08-11T11:23:03Z</time>
      </trkpt>
      <trkpt lat="44.35911" lon="5.49544">
        <ele>916.27</ele>
        <time>2014-08-11T11:23:26Z</time>
      </trkpt>
      <trkpt lat="44.35913" lon="5.49545">
        <ele>919.16</ele>
        <time>2014-08-11T11:23:45Z</time>
      </trkpt>
      <trkpt lat="44.35919" lon="5.49547">
        <ele>921.56</ele>
        <time>2014-08-11T11:24:03Z</time>
      </trkpt>
      <trkpt lat="44.35922" lon="5.49553">
        <ele>923.96</ele>
        <time>2014-08-11T11:24:22Z</time>
      </trkpt>
      <trkpt lat="44.35917" lon="5.49555">
        <ele>924.93</ele>
        <time>2014-08-11T11:24:37Z</time>
      </trkpt>
      <trkpt lat="44.35917" lon="5.49551">
        <ele>924.93</ele>
        <time>2014-08-11T11:24:53Z</time>
      </trkpt>
      <trkpt lat="44.35917" lon="5.49554">
        <ele>924.93</ele>
        <time>2014-08-11T11:25:17Z</time>
      </trkpt>
      <trkpt lat="44.35915" lon="5.49548">
        <ele>925.41</ele>
        <time>2014-08-11T11:25:46Z</time>
      </trkpt>
      <trkpt lat="44.35917" lon="5.49549">
        <ele>924.93</ele>
        <time>2014-08-11T11:26:12Z</time>
      </trkpt>
      <trkpt lat="44.35913" lon="5.49552">
        <ele>925.41</ele>
        <time>2014-08-11T11:26:41Z</time>
      </trkpt>
      <trkpt lat="44.35909" lon="5.49548">
        <ele>926.37</ele>
        <time>2014-08-11T11:27:19Z</time>
      </trkpt>
      <trkpt lat="44.35908" lon="5.49552">
        <ele>926.37</ele>
        <time>2014-08-11T11:27:48Z</time>
      </trkpt>
      <trkpt lat="44.35923" lon="5.49563">
        <ele>926.37</ele>
        <time>2014-08-11T11:28:06Z</time>
      </trkpt>
      <trkpt lat="44.35933" lon="5.49577">
        <ele>925.89</ele>
        <time>2014-08-11T11:28:23Z</time>
      </trkpt>
      <trkpt lat="44.35931" lon="5.49599">
        <ele>925.41</ele>
        <time>2014-08-11T11:28:40Z</time>
      </trkpt>
      <trkpt lat="44.35933" lon="5.49615">
        <ele>924.45</ele>
        <time>2014-08-11T11:28:56Z</time>
      </trkpt>
      <trkpt lat="44.3594" lon="5.49634">
        <ele>923.96</ele>
        <time>2014-08-11T11:29:13Z</time>
      </trkpt>
      <trkpt lat="44.35949" lon="5.49654">
        <ele>921.56</ele>
        <time>2014-08-11T11:29:30Z</time>
      </trkpt>
      <trkpt lat="44.35961" lon="5.49669">
        <ele>918.68</ele>
        <time>2014-08-11T11:29:49Z</time>
      </trkpt>
      <trkpt lat="44.35976" lon="5.49681">
        <ele>915.79</ele>
        <time>2014-08-11T11:30:07Z</time>
      </trkpt>
      <trkpt lat="44.35985" lon="5.49691">
        <ele>912.91</ele>
        <time>2014-08-11T11:30:22Z</time>
      </trkpt>
      <trkpt lat="44.35998" lon="5.49695">
        <ele>912.91</ele>
        <time>2014-08-11T11:30:38Z</time>
      </trkpt>
      <trkpt lat="44.36014" lon="5.49703">
        <ele>910.99</ele>
        <time>2014-08-11T11:30:53Z</time>
      </trkpt>
      <trkpt lat="44.36023" lon="5.49718">
        <ele>908.58</ele>
        <time>2014-08-11T11:31:08Z</time>
      </trkpt>
      <trkpt lat="44.36026" lon="5.49731">
        <ele>906.66</ele>
        <time>2014-08-11T11:31:18Z</time>
      </trkpt>
      <trkpt lat="44.36031" lon="5.49754">
        <ele>905.22</ele>
        <time>2014-08-11T11:31:35Z</time>
      </trkpt>
      <trkpt lat="44.36043" lon="5.49771">
        <ele>903.3</ele>
        <time>2014-08-11T11:31:53Z</time>
      </trkpt>
      <trkpt lat="44.36053" lon="5.49784">
        <ele>902.82</ele>
        <time>2014-08-11T11:32:09Z</time>
      </trkpt>
      <trkpt lat="44.36057" lon="5.49793">
        <ele>903.3</ele>
        <time>2014-08-11T11:32:15Z</time>
      </trkpt>
      <trkpt lat="44.36066" lon="5.49811">
        <ele>902.33</ele>
        <time>2014-08-11T11:32:31Z</time>
      </trkpt>
      <trkpt lat="44.36067" lon="5.49818">
        <ele>901.37</ele>
        <time>2014-08-11T11:32:45Z</time>
      </trkpt>
      <trkpt lat="44.36066" lon="5.49819">
        <ele>900.89</ele>
        <time>2014-08-11T11:33:10Z</time>
      </trkpt>
      <trkpt lat="44.36069" lon="5.49823">
        <ele>901.85</ele>
        <time>2014-08-11T11:33:17Z</time>
      </trkpt>
      <trkpt lat="44.36082" lon="5.49836">
        <ele>901.37</ele>
        <time>2014-08-11T11:33:35Z</time>
      </trkpt>
      <trkpt lat="44.36093" lon="5.49847">
        <ele>901.85</ele>
        <time>2014-08-11T11:33:50Z</time>
      </trkpt>
      <trkpt lat="44.36104" lon="5.4987">
        <ele>901.37</ele>
        <time>2014-08-11T11:34:09Z</time>
      </trkpt>
      <trkpt lat="44.36115" lon="5.49887">
        <ele>900.89</ele>
        <time>2014-08-11T11:34:28Z</time>
      </trkpt>
      <trkpt lat="44.36119" lon="5.4991">
        <ele>900.89</ele>
        <time>2014-08-11T11:34:44Z</time>
      </trkpt>
      <trkpt lat="44.3612" lon="5.49932">
        <ele>901.85</ele>
        <time>2014-08-11T11:35:01Z</time>
      </trkpt>
      <trkpt lat="44.36128" lon="5.49955">
        <ele>902.82</ele>
        <time>2014-08-11T11:35:19Z</time>
      </trkpt>
      <trkpt lat="44.36134" lon="5.49975">
        <ele>903.3</ele>
        <time>2014-08-11T11:35:37Z</time>
      </trkpt>
      <trkpt lat="44.36148" lon="5.49986">
        <ele>904.26</ele>
        <time>2014-08-11T11:35:54Z</time>
      </trkpt>
      <trkpt lat="44.36159" lon="5.50002">
        <ele>905.7</ele>
        <time>2014-08-11T11:36:12Z</time>
      </trkpt>
      <trkpt lat="44.36169" lon="5.50014">
        <ele>908.1</ele>
        <time>2014-08-11T11:36:31Z</time>
      </trkpt>
      <trkpt lat="44.36177" lon="5.50024">
        <ele>910.99</ele>
        <time>2014-08-11T11:36:47Z</time>
      </trkpt>
      <trkpt lat="44.36187" lon="5.50033">
        <ele>911.95</ele>
        <time>2014-08-11T11:37:07Z</time>
      </trkpt>
      <trkpt lat="44.36203" lon="5.50041">
        <ele>911.95</ele>
        <time>2014-08-11T11:37:27Z</time>
      </trkpt>
      <trkpt lat="44.3622" lon="5.50055">
        <ele>913.39</ele>
        <time>2014-08-11T11:37:44Z</time>
      </trkpt>
      <trkpt lat="44.36224" lon="5.50061">
        <ele>913.39</ele>
        <time>2014-08-11T11:38:01Z</time>
      </trkpt>
      <trkpt lat="44.36244" lon="5.50073">
        <ele>913.39</ele>
        <time>2014-08-11T11:38:19Z</time>
      </trkpt>
      <trkpt lat="44.36259" lon="5.50088">
        <ele>913.87</ele>
        <time>2014-08-11T11:38:36Z</time>
      </trkpt>
      <trkpt lat="44.36275" lon="5.50106">
        <ele>914.83</ele>
        <time>2014-08-11T11:38:58Z</time>
      </trkpt>
      <trkpt lat="44.36292" lon="5.50125">
        <ele>914.83</ele>
        <time>2014-08-11T11:39:17Z</time>
      </trkpt>
      <trkpt lat="44.36306" lon="5.50146">
        <ele>916.75</ele>
        <time>2014-08-11T11:39:37Z</time>
      </trkpt>
      <trkpt lat="44.36323" lon="5.5016">
        <ele>916.27</ele>
        <time>2014-08-11T11:39:58Z</time>
      </trkpt>
      <trkpt lat="44.36339" lon="5.50172">
        <ele>916.27</ele>
        <time>2014-08-11T11:40:17Z</time>
      </trkpt>
      <trkpt lat="44.36354" lon="5.5018">
        <ele>916.27</ele>
        <time>2014-08-11T11:40:37Z</time>
      </trkpt>
      <trkpt lat="44.36372" lon="5.50189">
        <ele>916.27</ele>
        <time>2014-08-11T11:40:55Z</time>
      </trkpt>
      <trkpt lat="44.36389" lon="5.50198">
        <ele>916.75</ele>
        <time>2014-08-11T11:41:12Z</time>
      </trkpt>
      <trkpt lat="44.36408" lon="5.50204">
        <ele>916.27</ele>
        <time>2014-08-11T11:41:31Z</time>
      </trkpt>
      <trkpt lat="44.36429" lon="5.50212">
        <ele>916.27</ele>
        <time>2014-08-11T11:41:50Z</time>
      </trkpt>
      <trkpt lat="44.3645" lon="5.50223">
        <ele>917.24</ele>
        <time>2014-08-11T11:42:09Z</time>
      </trkpt>
      <trkpt lat="44.36469" lon="5.50232">
        <ele>917.72</ele>
        <time>2014-08-11T11:42:28Z</time>
      </trkpt>
      <trkpt lat="44.36484" lon="5.50235">
        <ele>917.24</ele>
        <time>2014-08-11T11:42:46Z</time>
      </trkpt>
      <trkpt lat="44.36503" lon="5.50242">
        <ele>917.72</ele>
        <time>2014-08-11T11:43:03Z</time>
      </trkpt>
      <trkpt lat="44.36524" lon="5.50251">
        <ele>917.72</ele>
        <time>2014-08-11T11:43:23Z</time>
      </trkpt>
      <trkpt lat="44.36542" lon="5.50257">
        <ele>917.72</ele>
        <time>2014-08-11T11:43:41Z</time>
      </trkpt>
      <trkpt lat="44.36547" lon="5.50258">
        <ele>917.72</ele>
        <time>2014-08-11T11:44:07Z</time>
      </trkpt>
      <trkpt lat="44.36555" lon="5.50253">
        <ele>918.2</ele>
        <time>2014-08-11T11:44:36Z</time>
      </trkpt>
      <trkpt lat="44.36572" lon="5.50258">
        <ele>917.72</ele>
        <time>2014-08-11T11:44:53Z</time>
      </trkpt>
      <trkpt lat="44.36593" lon="5.50263">
        <ele>917.72</ele>
        <time>2014-08-11T11:45:12Z</time>
      </trkpt>
      <trkpt lat="44.3661" lon="5.50264">
        <ele>916.75</ele>
        <time>2014-08-11T11:45:28Z</time>
      </trkpt>
      <trkpt lat="44.36629" lon="5.50264">
        <ele>916.27</ele>
        <time>2014-08-11T11:45:45Z</time>
      </trkpt>
      <trkpt lat="44.36649" lon="5.50266">
        <ele>914.83</ele>
        <time>2014-08-11T11:46:02Z</time>
      </trkpt>
      <trkpt lat="44.36669" lon="5.50268">
        <ele>913.39</ele>
        <time>2014-08-11T11:46:19Z</time>
      </trkpt>
      <trkpt lat="44.36684" lon="5.50269">
        <ele>912.43</ele>
        <time>2014-08-11T11:46:33Z</time>
      </trkpt>
      <trkpt lat="44.36697" lon="5.50269">
        <ele>911.95</ele>
        <time>2014-08-11T11:46:48Z</time>
      </trkpt>
      <trkpt lat="44.367" lon="5.50274">
        <ele>911.95</ele>
        <time>2014-08-11T11:47:13Z</time>
      </trkpt>
      <trkpt lat="44.36707" lon="5.50274">
        <ele>911.47</ele>
        <time>2014-08-11T11:47:34Z</time>
      </trkpt>
      <trkpt lat="44.36726" lon="5.50278">
        <ele>908.58</ele>
        <time>2014-08-11T11:47:52Z</time>
      </trkpt>
      <trkpt lat="44.3674" lon="5.50284">
        <ele>906.66</ele>
        <time>2014-08-11T11:48:09Z</time>
      </trkpt>
      <trkpt lat="44.36757" lon="5.50297">
        <ele>904.74</ele>
        <time>2014-08-11T11:48:26Z</time>
      </trkpt>
      <trkpt lat="44.36771" lon="5.50316">
        <ele>903.78</ele>
        <time>2014-08-11T11:48:42Z</time>
      </trkpt>
      <trkpt lat="44.3678" lon="5.5033">
        <ele>901.85</ele>
        <time>2014-08-11T11:48:59Z</time>
      </trkpt>
      <trkpt lat="44.36791" lon="5.50343">
        <ele>899.45</ele>
        <time>2014-08-11T11:49:14Z</time>
      </trkpt>
      <trkpt lat="44.36801" lon="5.50362">
        <ele>896.57</ele>
        <time>2014-08-11T11:49:30Z</time>
      </trkpt>
      <trkpt lat="44.36802" lon="5.50372">
        <ele>894.64</ele>
        <time>2014-08-11T11:49:45Z</time>
      </trkpt>
      <trkpt lat="44.3681" lon="5.50382">
        <ele>892.24</ele>
        <time>2014-08-11T11:49:58Z</time>
      </trkpt>
      <trkpt lat="44.36817" lon="5.50401">
        <ele>889.36</ele>
        <time>2014-08-11T11:50:15Z</time>
      </trkpt>
      <trkpt lat="44.36822" lon="5.50416">
        <ele>885.99</ele>
        <time>2014-08-11T11:50:30Z</time>
      </trkpt>
      <trkpt lat="44.36823" lon="5.5043">
        <ele>883.59</ele>
        <time>2014-08-11T11:50:43Z</time>
      </trkpt>
      <trkpt lat="44.36824" lon="5.50446">
        <ele>881.67</ele>
        <time>2014-08-11T11:50:57Z</time>
      </trkpt>
      <trkpt lat="44.36823" lon="5.50463">
        <ele>879.74</ele>
        <time>2014-08-11T11:51:13Z</time>
      </trkpt>
      <trkpt lat="44.36823" lon="5.50474">
        <ele>876.86</ele>
        <time>2014-08-11T11:51:24Z</time>
      </trkpt>
      <trkpt lat="44.36824" lon="5.50492">
        <ele>873.98</ele>
        <time>2014-08-11T11:51:41Z</time>
      </trkpt>
      <trkpt lat="44.36825" lon="5.5051">
        <ele>871.57</ele>
        <time>2014-08-11T11:51:57Z</time>
      </trkpt>
      <trkpt lat="44.3683" lon="5.50522">
        <ele>868.69</ele>
        <time>2014-08-11T11:52:13Z</time>
      </trkpt>
      <trkpt lat="44.36833" lon="5.50527">
        <ele>867.73</ele>
        <time>2014-08-11T11:52:32Z</time>
      </trkpt>
      <trkpt lat="44.36839" lon="5.50537">
        <ele>864.84</ele>
        <time>2014-08-11T11:52:46Z</time>
      </trkpt>
      <trkpt lat="44.36847" lon="5.50543">
        <ele>861.48</ele>
        <time>2014-08-11T11:53:01Z</time>
      </trkpt>
      <trkpt lat="44.36854" lon="5.50557">
        <ele>858.59</ele>
        <time>2014-08-11T11:53:18Z</time>
      </trkpt>
      <trkpt lat="44.36863" lon="5.50571">
        <ele>855.23</ele>
        <time>2014-08-11T11:53:36Z</time>
      </trkpt>
      <trkpt lat="44.36872" lon="5.50586">
        <ele>852.35</ele>
        <time>2014-08-11T11:53:54Z</time>
      </trkpt>
      <trkpt lat="44.36874" lon="5.5059">
        <ele>850.42</ele>
        <time>2014-08-11T11:54:10Z</time>
      </trkpt>
      <trkpt lat="44.36889" lon="5.50602">
        <ele>848.5</ele>
        <time>2014-08-11T11:54:28Z</time>
      </trkpt>
      <trkpt lat="44.36901" lon="5.50619">
        <ele>845.14</ele>
        <time>2014-08-11T11:54:45Z</time>
      </trkpt>
      <trkpt lat="44.36916" lon="5.50637">
        <ele>843.21</ele>
        <time>2014-08-11T11:55:05Z</time>
      </trkpt>
      <trkpt lat="44.36926" lon="5.50638">
        <ele>843.69</ele>
        <time>2014-08-11T11:55:19Z</time>
      </trkpt>
      <trkpt lat="44.36935" lon="5.50622">
        <ele>844.18</ele>
        <time>2014-08-11T11:55:34Z</time>
      </trkpt>
      <trkpt lat="44.36947" lon="5.50603">
        <ele>845.14</ele>
        <time>2014-08-11T11:55:51Z</time>
      </trkpt>
      <trkpt lat="44.3696" lon="5.50597">
        <ele>847.54</ele>
        <time>2014-08-11T11:56:06Z</time>
      </trkpt>
      <trkpt lat="44.36975" lon="5.50595">
        <ele>849.94</ele>
        <time>2014-08-11T11:56:23Z</time>
      </trkpt>
      <trkpt lat="44.36989" lon="5.50598">
        <ele>852.35</ele>
        <time>2014-08-11T11:56:40Z</time>
      </trkpt>
      <trkpt lat="44.36999" lon="5.506">
        <ele>855.23</ele>
        <time>2014-08-11T11:56:54Z</time>
      </trkpt>
      <trkpt lat="44.37011" lon="5.50595">
        <ele>856.19</ele>
        <time>2014-08-11T11:57:10Z</time>
      </trkpt>
      <trkpt lat="44.37022" lon="5.50591">
        <ele>858.59</ele>
        <time>2014-08-11T11:57:24Z</time>
      </trkpt>
      <trkpt lat="44.37035" lon="5.50595">
        <ele>860.52</ele>
        <time>2014-08-11T11:57:41Z</time>
      </trkpt>
      <trkpt lat="44.37036" lon="5.50604">
        <ele>860.04</ele>
        <time>2014-08-11T11:58:08Z</time>
      </trkpt>
      <trkpt lat="44.37039" lon="5.50621">
        <ele>859.08</ele>
        <time>2014-08-11T11:58:23Z</time>
      </trkpt>
      <trkpt lat="44.37053" lon="5.50637">
        <ele>856.67</ele>
        <time>2014-08-11T11:58:44Z</time>
      </trkpt>
      <trkpt lat="44.37071" lon="5.5065">
        <ele>855.23</ele>
        <time>2014-08-11T11:59:04Z</time>
      </trkpt>
      <trkpt lat="44.37093" lon="5.50661">
        <ele>853.79</ele>
        <time>2014-08-11T11:59:27Z</time>
      </trkpt>
      <trkpt lat="44.3711" lon="5.50674">
        <ele>851.87</ele>
        <time>2014-08-11T11:59:47Z</time>
      </trkpt>
      <trkpt lat="44.37131" lon="5.50686">
        <ele>849.94</ele>
        <time>2014-08-11T12:00:07Z</time>
      </trkpt>
      <trkpt lat="44.3715" lon="5.50704">
        <ele>848.02</ele>
        <time>2014-08-11T12:00:29Z</time>
      </trkpt>
      <trkpt lat="44.37168" lon="5.50712">
        <ele>846.1</ele>
        <time>2014-08-11T12:00:51Z</time>
      </trkpt>
      <trkpt lat="44.37187" lon="5.50725">
        <ele>844.18</ele>
        <time>2014-08-11T12:01:11Z</time>
      </trkpt>
      <trkpt lat="44.37205" lon="5.50742">
        <ele>843.21</ele>
        <time>2014-08-11T12:01:31Z</time>
      </trkpt>
      <trkpt lat="44.37225" lon="5.50756">
        <ele>841.29</ele>
        <time>2014-08-11T12:01:51Z</time>
      </trkpt>
      <trkpt lat="44.37244" lon="5.50766">
        <ele>840.33</ele>
        <time>2014-08-11T12:02:12Z</time>
      </trkpt>
      <trkpt lat="44.37261" lon="5.50774">
        <ele>837.93</ele>
        <time>2014-08-11T12:02:32Z</time>
      </trkpt>
      <trkpt lat="44.37262" lon="5.50775">
        <ele>837.45</ele>
        <time>2014-08-11T12:02:33Z</time>
      </trkpt>
      <trkpt lat="44.37283" lon="5.50784">
        <ele>835.04</ele>
        <time>2014-08-11T12:02:54Z</time>
      </trkpt>
      <trkpt lat="44.37285" lon="5.50785">
        <ele>835.04</ele>
        <time>2014-08-11T12:03:08Z</time>
      </trkpt>
      <trkpt lat="44.37289" lon="5.50786">
        <ele>835.04</ele>
        <time>2014-08-11T12:03:36Z</time>
      </trkpt>
      <trkpt lat="44.37295" lon="5.50787">
        <ele>834.56</ele>
        <time>2014-08-11T12:04:02Z</time>
      </trkpt>
      <trkpt lat="44.37311" lon="5.50795">
        <ele>833.12</ele>
        <time>2014-08-11T12:04:20Z</time>
      </trkpt>
      <trkpt lat="44.37327" lon="5.50804">
        <ele>831.68</ele>
        <time>2014-08-11T12:04:39Z</time>
      </trkpt>
      <trkpt lat="44.37345" lon="5.50812">
        <ele>830.24</ele>
        <time>2014-08-11T12:04:58Z</time>
      </trkpt>
      <trkpt lat="44.37364" lon="5.5081">
        <ele>828.79</ele>
        <time>2014-08-11T12:05:16Z</time>
      </trkpt>
      <trkpt lat="44.3738" lon="5.50807">
        <ele>827.83</ele>
        <time>2014-08-11T12:05:33Z</time>
      </trkpt>
      <trkpt lat="44.37375" lon="5.50825">
        <ele>826.87</ele>
        <time>2014-08-11T12:05:49Z</time>
      </trkpt>
      <trkpt lat="44.37361" lon="5.50836">
        <ele>824.95</ele>
        <time>2014-08-11T12:06:07Z</time>
      </trkpt>
      <trkpt lat="44.37349" lon="5.50844">
        <ele>823.99</ele>
        <time>2014-08-11T12:06:22Z</time>
      </trkpt>
      <trkpt lat="44.37347" lon="5.50847">
        <ele>823.03</ele>
        <time>2014-08-11T12:06:37Z</time>
      </trkpt>
      <trkpt lat="44.37341" lon="5.50849">
        <ele>823.03</ele>
        <time>2014-08-11T12:06:43Z</time>
      </trkpt>
      <trkpt lat="44.37325" lon="5.50859">
        <ele>820.62</ele>
        <time>2014-08-11T12:07:01Z</time>
      </trkpt>
      <trkpt lat="44.37308" lon="5.50868">
        <ele>818.22</ele>
        <time>2014-08-11T12:07:20Z</time>
      </trkpt>
      <trkpt lat="44.37294" lon="5.50879">
        <ele>816.3</ele>
        <time>2014-08-11T12:07:38Z</time>
      </trkpt>
      <trkpt lat="44.37281" lon="5.5089">
        <ele>814.85</ele>
        <time>2014-08-11T12:07:55Z</time>
      </trkpt>
      <trkpt lat="44.37266" lon="5.50899">
        <ele>812.93</ele>
        <time>2014-08-11T12:08:12Z</time>
      </trkpt>
      <trkpt lat="44.37251" lon="5.50907">
        <ele>810.53</ele>
        <time>2014-08-11T12:08:29Z</time>
      </trkpt>
      <trkpt lat="44.37236" lon="5.50913">
        <ele>809.09</ele>
        <time>2014-08-11T12:08:47Z</time>
      </trkpt>
      <trkpt lat="44.37216" lon="5.50916">
        <ele>807.64</ele>
        <time>2014-08-11T12:09:07Z</time>
      </trkpt>
      <trkpt lat="44.37196" lon="5.50914">
        <ele>804.76</ele>
        <time>2014-08-11T12:09:26Z</time>
      </trkpt>
      <trkpt lat="44.3718" lon="5.50914">
        <ele>803.32</ele>
        <time>2014-08-11T12:09:42Z</time>
      </trkpt>
      <trkpt lat="44.37165" lon="5.50914">
        <ele>801.4</ele>
        <time>2014-08-11T12:09:56Z</time>
      </trkpt>
      <trkpt lat="44.37156" lon="5.50915">
        <ele>800.44</ele>
        <time>2014-08-11T12:10:05Z</time>
      </trkpt>
      <trkpt lat="44.37136" lon="5.50915">
        <ele>798.03</ele>
        <time>2014-08-11T12:10:24Z</time>
      </trkpt>
      <trkpt lat="44.3712" lon="5.50915">
        <ele>796.59</ele>
        <time>2014-08-11T12:10:41Z</time>
      </trkpt>
      <trkpt lat="44.37101" lon="5.50909">
        <ele>795.63</ele>
        <time>2014-08-11T12:10:59Z</time>
      </trkpt>
      <trkpt lat="44.37096" lon="5.50912">
        <ele>795.15</ele>
        <time>2014-08-11T12:11:15Z</time>
      </trkpt>
      <trkpt lat="44.37093" lon="5.50919">
        <ele>794.19</ele>
        <time>2014-08-11T12:11:25Z</time>
      </trkpt>
      <trkpt lat="44.37087" lon="5.50932">
        <ele>792.74</ele>
        <time>2014-08-11T12:11:35Z</time>
      </trkpt>
      <trkpt lat="44.37074" lon="5.5095">
        <ele>789.86</ele>
        <time>2014-08-11T12:11:53Z</time>
      </trkpt>
      <trkpt lat="44.37058" lon="5.50963">
        <ele>787.46</ele>
        <time>2014-08-11T12:12:11Z</time>
      </trkpt>
      <trkpt lat="44.37056" lon="5.50965">
        <ele>786.5</ele>
        <time>2014-08-11T12:12:13Z</time>
      </trkpt>
      <trkpt lat="44.37036" lon="5.50978">
        <ele>784.09</ele>
        <time>2014-08-11T12:12:33Z</time>
      </trkpt>
      <trkpt lat="44.37023" lon="5.5097">
        <ele>783.61</ele>
        <time>2014-08-11T12:12:49Z</time>
      </trkpt>
      <trkpt lat="44.37019" lon="5.50967">
        <ele>783.13</ele>
        <time>2014-08-11T12:13:04Z</time>
      </trkpt>
      <trkpt lat="44.37006" lon="5.5095">
        <ele>782.17</ele>
        <time>2014-08-11T12:13:20Z</time>
      </trkpt>
      <trkpt lat="44.36997" lon="5.5093">
        <ele>781.21</ele>
        <time>2014-08-11T12:13:38Z</time>
      </trkpt>
      <trkpt lat="44.36994" lon="5.50928">
        <ele>781.69</ele>
        <time>2014-08-11T12:14:04Z</time>
      </trkpt>
      <trkpt lat="44.36986" lon="5.50928">
        <ele>779.77</ele>
        <time>2014-08-11T12:14:19Z</time>
      </trkpt>
      <trkpt lat="44.36982" lon="5.50928">
        <ele>779.77</ele>
        <time>2014-08-11T12:14:33Z</time>
      </trkpt>
      <trkpt lat="44.36976" lon="5.50923">
        <ele>779.77</ele>
        <time>2014-08-11T12:14:55Z</time>
      </trkpt>
      <trkpt lat="44.36982" lon="5.50932">
        <ele>780.25</ele>
        <time>2014-08-11T12:15:14Z</time>
      </trkpt>
      <trkpt lat="44.36984" lon="5.50936">
        <ele>778.81</ele>
        <time>2014-08-11T12:15:37Z</time>
      </trkpt>
      <trkpt lat="44.36986" lon="5.50936">
        <ele>779.29</ele>
        <time>2014-08-11T12:16:04Z</time>
      </trkpt>
      <trkpt lat="44.36986" lon="5.50937">
        <ele>778.81</ele>
        <time>2014-08-11T12:16:30Z</time>
      </trkpt>
      <trkpt lat="44.36986" lon="5.50941">
        <ele>779.29</ele>
        <time>2014-08-11T12:16:53Z</time>
      </trkpt>
      <trkpt lat="44.36986" lon="5.5094">
        <ele>780.25</ele>
        <time>2014-08-11T12:17:12Z</time>
      </trkpt>
      <trkpt lat="44.36984" lon="5.50938">
        <ele>780.25</ele>
        <time>2014-08-11T12:17:35Z</time>
      </trkpt>
      <trkpt lat="44.36983" lon="5.50938">
        <ele>780.25</ele>
        <time>2014-08-11T12:17:37Z</time>
      </trkpt>
      <trkpt lat="44.36973" lon="5.50959">
        <ele>777.84</ele>
        <time>2014-08-11T12:17:58Z</time>
      </trkpt>
      <trkpt lat="44.36975" lon="5.50976">
        <ele>775.92</ele>
        <time>2014-08-11T12:18:10Z</time>
      </trkpt>
      <trkpt lat="44.36979" lon="5.50997">
        <ele>774.48</ele>
        <time>2014-08-11T12:18:24Z</time>
      </trkpt>
      <trkpt lat="44.36988" lon="5.51026">
        <ele>772.56</ele>
        <time>2014-08-11T12:18:44Z</time>
      </trkpt>
      <trkpt lat="44.37" lon="5.51048">
        <ele>771.11</ele>
        <time>2014-08-11T12:19:02Z</time>
      </trkpt>
      <trkpt lat="44.37012" lon="5.51054">
        <ele>769.67</ele>
        <time>2014-08-11T12:19:15Z</time>
      </trkpt>
      <trkpt lat="44.37031" lon="5.51058">
        <ele>768.23</ele>
        <time>2014-08-11T12:19:33Z</time>
      </trkpt>
      <trkpt lat="44.37048" lon="5.51063">
        <ele>766.79</ele>
        <time>2014-08-11T12:19:52Z</time>
      </trkpt>
      <trkpt lat="44.37069" lon="5.51074">
        <ele>763.9</ele>
        <time>2014-08-11T12:20:12Z</time>
      </trkpt>
      <trkpt lat="44.37072" lon="5.51077">
        <ele>764.39</ele>
        <time>2014-08-11T12:20:15Z</time>
      </trkpt>
      <trkpt lat="44.37093" lon="5.511">
        <ele>761.98</ele>
        <time>2014-08-11T12:20:37Z</time>
      </trkpt>
      <trkpt lat="44.371" lon="5.51115">
        <ele>761.02</ele>
        <time>2014-08-11T12:20:52Z</time>
      </trkpt>
      <trkpt lat="44.37112" lon="5.51125">
        <ele>760.54</ele>
        <time>2014-08-11T12:21:10Z</time>
      </trkpt>
      <trkpt lat="44.37129" lon="5.51129">
        <ele>760.54</ele>
        <time>2014-08-11T12:21:27Z</time>
      </trkpt>
      <trkpt lat="44.37154" lon="5.51133">
        <ele>761.02</ele>
        <time>2014-08-11T12:21:48Z</time>
      </trkpt>
      <trkpt lat="44.37182" lon="5.51139">
        <ele>760.06</ele>
        <time>2014-08-11T12:22:11Z</time>
      </trkpt>
      <trkpt lat="44.37196" lon="5.51155">
        <ele>757.18</ele>
        <time>2014-08-11T12:22:30Z</time>
      </trkpt>
      <trkpt lat="44.37213" lon="5.51167">
        <ele>754.77</ele>
        <time>2014-08-11T12:22:49Z</time>
      </trkpt>
      <trkpt lat="44.37231" lon="5.51173">
        <ele>753.81</ele>
        <time>2014-08-11T12:23:07Z</time>
      </trkpt>
      <trkpt lat="44.37251" lon="5.51175">
        <ele>752.85</ele>
        <time>2014-08-11T12:23:25Z</time>
      </trkpt>
      <trkpt lat="44.37275" lon="5.51175">
        <ele>752.37</ele>
        <time>2014-08-11T12:23:45Z</time>
      </trkpt>
      <trkpt lat="44.37298" lon="5.51181">
        <ele>749.49</ele>
        <time>2014-08-11T12:24:06Z</time>
      </trkpt>
      <trkpt lat="44.37316" lon="5.51181">
        <ele>748.04</ele>
        <time>2014-08-11T12:24:20Z</time>
      </trkpt>
      <trkpt lat="44.37338" lon="5.51183">
        <ele>747.08</ele>
        <time>2014-08-11T12:24:40Z</time>
      </trkpt>
      <trkpt lat="44.37362" lon="5.51189">
        <ele>745.64</ele>
        <time>2014-08-11T12:25:02Z</time>
      </trkpt>
      <trkpt lat="44.37377" lon="5.51191">
        <ele>744.68</ele>
        <time>2014-08-11T12:25:20Z</time>
      </trkpt>
      <trkpt lat="44.37403" lon="5.5119">
        <ele>743.72</ele>
        <time>2014-08-11T12:25:37Z</time>
      </trkpt>
      <trkpt lat="44.37425" lon="5.51192">
        <ele>743.24</ele>
        <time>2014-08-11T12:25:57Z</time>
      </trkpt>
      <trkpt lat="44.37444" lon="5.51196">
        <ele>742.76</ele>
        <time>2014-08-11T12:26:16Z</time>
      </trkpt>
      <trkpt lat="44.37468" lon="5.51208">
        <ele>741.31</ele>
        <time>2014-08-11T12:26:36Z</time>
      </trkpt>
      <trkpt lat="44.37482" lon="5.51219">
        <ele>739.87</ele>
        <time>2014-08-11T12:26:53Z</time>
      </trkpt>
      <trkpt lat="44.37504" lon="5.51233">
        <ele>738.91</ele>
        <time>2014-08-11T12:27:14Z</time>
      </trkpt>
      <trkpt lat="44.37528" lon="5.51234">
        <ele>738.43</ele>
        <time>2014-08-11T12:27:34Z</time>
      </trkpt>
      <trkpt lat="44.37548" lon="5.51233">
        <ele>738.43</ele>
        <time>2014-08-11T12:27:51Z</time>
      </trkpt>
      <trkpt lat="44.37563" lon="5.51232">
        <ele>739.39</ele>
        <time>2014-08-11T12:28:07Z</time>
      </trkpt>
      <trkpt lat="44.37582" lon="5.51229">
        <ele>740.83</ele>
        <time>2014-08-11T12:28:25Z</time>
      </trkpt>
      <trkpt lat="44.37603" lon="5.51225">
        <ele>742.28</ele>
        <time>2014-08-11T12:28:45Z</time>
      </trkpt>
      <trkpt lat="44.37618" lon="5.51222">
        <ele>743.24</ele>
        <time>2014-08-11T12:28:59Z</time>
      </trkpt>
      <trkpt lat="44.37628" lon="5.51227">
        <ele>742.76</ele>
        <time>2014-08-11T12:29:17Z</time>
      </trkpt>
      <trkpt lat="44.3763" lon="5.51229">
        <ele>742.28</ele>
        <time>2014-08-11T12:29:33Z</time>
      </trkpt>
      <trkpt lat="44.37637" lon="5.51254">
        <ele>740.35</ele>
        <time>2014-08-11T12:29:51Z</time>
      </trkpt>
      <trkpt lat="44.37644" lon="5.51286">
        <ele>739.39</ele>
        <time>2014-08-11T12:30:12Z</time>
      </trkpt>
      <trkpt lat="44.37653" lon="5.51307">
        <ele>738.43</ele>
        <time>2014-08-11T12:30:30Z</time>
      </trkpt>
      <trkpt lat="44.3765" lon="5.51317">
        <ele>738.91</ele>
        <time>2014-08-11T12:30:37Z</time>
      </trkpt>
      <trkpt lat="44.37649" lon="5.51335">
        <ele>738.43</ele>
        <time>2014-08-11T12:30:48Z</time>
      </trkpt>
      <trkpt lat="44.37651" lon="5.51368">
        <ele>737.95</ele>
        <time>2014-08-11T12:31:09Z</time>
      </trkpt>
      <trkpt lat="44.37656" lon="5.51389">
        <ele>737.95</ele>
        <time>2014-08-11T12:31:27Z</time>
      </trkpt>
      <trkpt lat="44.37661" lon="5.51399">
        <ele>737.95</ele>
        <time>2014-08-11T12:31:41Z</time>
      </trkpt>
      <trkpt lat="44.3767" lon="5.51406">
        <ele>738.43</ele>
        <time>2014-08-11T12:31:56Z</time>
      </trkpt>
      <trkpt lat="44.37684" lon="5.5142">
        <ele>738.43</ele>
        <time>2014-08-11T12:32:16Z</time>
      </trkpt>
      <trkpt lat="44.37694" lon="5.51425">
        <ele>737.95</ele>
        <time>2014-08-11T12:32:25Z</time>
      </trkpt>
      <trkpt lat="44.37701" lon="5.51434">
        <ele>738.91</ele>
        <time>2014-08-11T12:32:44Z</time>
      </trkpt>
      <trkpt lat="44.37706" lon="5.51422">
        <ele>738.91</ele>
        <time>2014-08-11T12:32:53Z</time>
      </trkpt>
      <trkpt lat="44.37712" lon="5.51411">
        <ele>739.39</ele>
        <time>2014-08-11T12:33:03Z</time>
      </trkpt>
      <trkpt lat="44.37717" lon="5.51391">
        <ele>739.87</ele>
        <time>2014-08-11T12:33:23Z</time>
      </trkpt>
      <trkpt lat="44.37726" lon="5.51381">
        <ele>740.35</ele>
        <time>2014-08-11T12:33:46Z</time>
      </trkpt>
      <trkpt lat="44.37731" lon="5.51367">
        <ele>740.83</ele>
        <time>2014-08-11T12:34:04Z</time>
      </trkpt>
      <trkpt lat="44.37735" lon="5.51367">
        <ele>740.35</ele>
        <time>2014-08-11T12:34:07Z</time>
      </trkpt>
      <trkpt lat="44.37743" lon="5.51359">
        <ele>740.83</ele>
        <time>2014-08-11T12:34:24Z</time>
      </trkpt>
      <trkpt lat="44.37762" lon="5.51391">
        <ele>741.79</ele>
        <time>2014-08-11T12:34:57Z</time>
      </trkpt>
      <trkpt lat="44.37757" lon="5.51391">
        <ele>742.76</ele>
        <time>2014-08-11T12:35:22Z</time>
      </trkpt>
      <trkpt lat="44.37768" lon="5.5141">
        <ele>742.28</ele>
        <time>2014-08-11T12:35:46Z</time>
      </trkpt>
    </trkseg>
  </trk>
</gpx>